Time;durP1;ratioP1;P1;durP2;ratioP2;P2;SDS_P1;SDS_P2;PMS_P1;PMS_P2;Temp;Humidity;BMP_temperature;BMP_pressure;BME280_temperature;BME280_humidity;BME280_pressure;Samples;Min_cycle;Max_cycle;Signal;HPM_P1;HPM_P2
2021/07/02 02:47:32;;;;;;;6.32;3.78;;;18.50;82.70;;;;;;4774284;24;20081;-77
2021/07/02 02:49:58;;;;;;;5.13;3.67;;;18.50;82.80;;;;;;4693007;30;20109;-77
2021/07/02 02:52:24;;;;;;;5.05;3.50;;;18.50;82.70;;;;;;4694733;30;20025;-77
2021/07/02 02:54:51;;;;;;;7.13;3.90;;;18.50;82.50;;;;;;4707682;30;20036;-77
2021/07/02 02:57:17;;;;;;;4.25;3.40;;;18.50;82.60;;;;;;4691363;30;20322;-77
2021/07/02 02:59:46;;;;;;;6.93;3.38;;;18.50;82.50;;;;;;4693476;30;20037;-77
2021/07/02 03:02:16;;;;;;;5.93;3.63;;;18.50;82.60;;;;;;4690963;30;20037;-77
2021/07/02 03:04:44;;;;;;;7.75;3.40;;;18.50;82.30;;;;;;4677354;30;20101;-77
2021/07/02 03:07:10;;;;;;;6.32;3.33;;;18.50;82.30;;;;;;4693263;30;20037;-77
2021/07/02 03:09:37;;;;;;;5.10;3.85;;;18.50;82.30;;;;;;4690698;30;20038;-77
2021/07/02 03:12:04;;;;;;;5.97;3.50;;;18.50;82.20;;;;;;4683231;30;20026;-77
2021/07/02 03:14:30;;;;;;;4.57;3.45;;;18.50;82.10;;;;;;4693475;30;20218;-77
2021/07/02 03:16:57;;;;;;;3.97;3.53;;;18.60;81.90;;;;;;4698669;30;20053;-77
2021/07/02 03:19:26;;;;;;;10.55;3.42;;;18.60;81.60;;;;;;4693114;30;20417;-77
2021/07/02 03:21:56;;;;;;;3.33;2.80;;;18.70;81.60;;;;;;4690391;30;20030;-77
2021/07/02 03:24:22;;;;;;;4.95;3.58;;;18.70;81.20;;;;;;4706917;30;20340;-77
2021/07/02 03:26:49;;;;;;;4.67;3.40;;;18.70;81.00;;;;;;4692993;30;20314;-77
2021/07/02 03:29:15;;;;;;;5.50;3.50;;;18.70;81.10;;;;;;4690181;30;20609;-78
2021/07/02 03:31:42;;;;;;;4.40;3.47;;;18.80;80.60;;;;;;4692359;30;20034;-77
2021/07/02 03:34:08;;;;;;;4.90;3.30;;;18.80;80.30;;;;;;4692800;30;20100;-77
2021/07/02 03:36:35;;;;;;;7.32;3.78;;;18.80;80.20;;;;;;4692944;30;20033;-77
2021/07/02 03:39:04;;;;;;;3.90;3.13;;;18.80;80.40;;;;;;4693281;30;20041;-77
2021/07/02 03:41:32;;;;;;;3.95;3.50;;;18.80;80.50;;;;;;4693187;30;20041;-77
2021/07/02 03:43:58;;;;;;;7.50;3.05;;;18.80;80.50;;;;;;4693918;30;20034;-77
2021/07/02 03:46:24;;;;;;;5.18;3.28;;;18.80;80.50;;;;;;4688034;30;20047;-77
2021/07/02 03:48:50;;;;;;;4.50;3.40;;;18.80;80.70;;;;;;4682539;30;20164;-78
2021/07/02 03:51:17;;;;;;;5.65;3.35;;;18.80;80.40;;;;;;4672633;30;20118;-78
2021/07/02 03:53:43;;;;;;;6.00;3.53;;;18.90;80.40;;;;;;4684296;30;20137;-77
2021/07/02 03:56:10;;;;;;;5.63;3.45;;;18.90;80.10;;;;;;4687233;30;20058;-77
2021/07/02 03:58:35;;;;;;;6.97;3.30;;;18.90;80.00;;;;;;4689841;30;20036;-77
2021/07/02 04:01:01;;;;;;;6.07;3.00;;;19.00;80.00;;;;;;4676411;30;20065;-77
2021/07/02 04:03:28;;;;;;;5.88;3.50;;;18.90;80.00;;;;;;4676241;30;20038;-77
2021/07/02 04:05:54;;;;;;;7.55;3.13;;;19.00;79.70;;;;;;4676401;30;20040;-77
2021/07/02 04:08:20;;;;;;;4.95;3.20;;;19.00;79.40;;;;;;4675400;30;20350;-77
2021/07/02 04:10:46;;;;;;;4.65;3.40;;;19.00;79.10;;;;;;4676288;30;20034;-77
2021/07/02 04:13:12;;;;;;;3.63;2.80;;;19.10;78.90;;;;;;4676251;30;20101;-77
2021/07/02 04:15:38;;;;;;;4.53;3.30;;;19.20;78.70;;;;;;4676167;30;20047;-77
2021/07/02 04:18:07;;;;;;;8.53;3.23;;;19.20;78.40;;;;;;4670834;30;20066;-77
2021/07/02 04:20:33;;;;;;;3.78;2.95;;;19.20;77.70;;;;;;4689384;30;20112;-77
2021/07/02 04:22:59;;;;;;;8.23;3.13;;;19.30;77.90;;;;;;4689503;30;20054;-77
2021/07/02 04:25:25;;;;;;;6.78;2.88;;;19.40;77.80;;;;;;4675009;30;20046;-77
2021/07/02 04:27:51;;;;;;;6.05;3.00;;;19.40;77.40;;;;;;4676269;30;20038;-77
2021/07/02 04:30:17;;;;;;;5.45;2.90;;;19.40;77.50;;;;;;4676234;30;20034;-77
2021/07/02 04:32:43;;;;;;;3.88;2.88;;;19.40;77.50;;;;;;4675702;30;20066;-77
2021/07/02 04:35:11;;;;;;;6.63;3.67;;;19.40;77.20;;;;;;4682884;30;20035;-77
2021/07/02 04:37:38;;;;;;;7.30;3.13;;;19.40;77.80;;;;;;4671950;30;20035;-77
2021/07/02 04:40:04;;;;;;;;;;;19.40;77.90;;;;;;4672541;30;20222;-77
2021/07/02 04:42:30;;;;;;;5.38;3.00;;;19.30;77.90;;;;;;4669083;30;19911;-77
2021/07/02 04:44:56;;;;;;;4.90;2.65;;;19.30;77.90;;;;;;4688766;30;20247;-77
2021/07/02 04:47:22;;;;;;;6.85;2.85;;;19.40;77.90;;;;;;4681244;30;20054;-77
2021/07/02 04:49:47;;;;;;;4.57;3.05;;;19.50;77.70;;;;;;4675820;30;20034;-77
2021/07/02 04:52:13;;;;;;;5.20;3.20;;;19.50;77.40;;;;;;4675921;30;20077;-77
2021/07/02 04:54:39;;;;;;;10.77;3.17;;;19.50;77.10;;;;;;4675687;30;20042;-77
2021/07/02 04:57:05;;;;;;;4.72;3.15;;;19.50;77.10;;;;;;4674529;30;20035;-77
2021/07/02 04:59:36;;;;;;;4.22;2.95;;;19.60;76.90;;;;;;4675861;30;20035;-77
2021/07/02 05:02:02;;;;;;;4.47;3.03;;;19.70;76.90;;;;;;4674991;30;20036;-77
2021/07/02 05:04:28;;;;;;;8.63;2.90;;;19.70;77.00;;;;;;4689202;30;20089;-78
2021/07/02 05:06:55;;;;;;;7.88;3.10;;;19.70;76.50;;;;;;4689285;30;20030;-79
2021/07/02 05:09:21;;;;;;;5.35;2.97;;;19.80;76.90;;;;;;4689024;30;20034;-76
2021/07/02 05:11:48;;;;;;;4.07;2.85;;;19.80;76.20;;;;;;4674170;30;20399;-75
2021/07/02 05:14:14;;;;;;;4.90;2.95;;;19.80;75.80;;;;;;4674330;30;20042;-76
2021/07/02 05:16:40;;;;;;;7.35;2.72;;;19.80;76.40;;;;;;4677111;30;20166;-76
2021/07/02 05:19:06;;;;;;;5.95;3.10;;;19.90;76.00;;;;;;4665852;30;20224;-76
2021/07/02 05:21:32;;;;;;;6.63;2.90;;;19.90;76.30;;;;;;4673073;30;20077;-76
2021/07/02 05:23:57;;;;;;;4.68;3.17;;;19.90;75.90;;;;;;4686898;30;20038;-76
2021/07/02 05:26:23;;;;;;;7.20;3.05;;;19.90;75.90;;;;;;4687769;30;20105;-76
2021/07/02 05:28:49;;;;;;;5.18;2.80;;;19.90;76.00;;;;;;4670261;30;20041;-76
2021/07/02 05:31:16;;;;;;;4.38;3.30;;;19.90;76.00;;;;;;4674205;30;20034;-76
2021/07/02 05:33:42;;;;;;;3.72;2.92;;;19.90;76.20;;;;;;4675013;30;20101;-77
2021/07/02 05:36:08;;;;;;;4.25;2.67;;;20.00;75.80;;;;;;4675322;30;20023;-76
2021/07/02 05:38:34;;;;;;;6.10;3.33;;;20.00;75.80;;;;;;4688248;30;20109;-77
2021/07/02 05:40:59;;;;;;;4.03;2.75;;;20.10;75.40;;;;;;4667785;30;20102;-76
2021/07/02 05:43:26;;;;;;;2.90;2.60;;;20.10;75.20;;;;;;4670423;30;20038;-77
2021/07/02 05:45:52;;;;;;;4.03;2.97;;;20.20;75.40;;;;;;4665461;30;20109;-77
2021/07/02 05:48:19;;;;;;;4.00;2.88;;;20.40;74.90;;;;;;4671454;30;20042;-76
2021/07/02 05:50:45;;;;;;;;;;;20.40;74.50;;;;;;4675288;30;20334;-77
2021/07/02 05:53:11;;;;;;;3.65;2.63;;;20.40;74.10;;;;;;4671281;30;19949;-76
2021/07/02 05:55:38;;;;;;;3.97;3.28;;;20.30;73.60;;;;;;4672337;30;20045;-77
2021/07/02 05:58:03;;;;;;;3.38;2.72;;;20.40;74.00;;;;;;4670964;30;20239;-76
2021/07/02 06:00:29;;;;;;;8.18;2.83;;;20.50;73.80;;;;;;4671590;30;20049;-76
2021/07/02 06:02:55;;;;;;;7.88;2.70;;;20.50;73.20;;;;;;4667929;30;20068;-77
2021/07/02 06:05:22;;;;;;;6.15;2.80;;;20.50;73.20;;;;;;4676009;30;20026;-76
2021/07/02 06:07:49;;;;;;;3.63;3.00;;;20.50;73.10;;;;;;4674571;30;20030;-77
2021/07/02 06:10:17;;;;;;;6.32;3.10;;;20.60;73.10;;;;;;4674548;30;20042;-76
2021/07/02 06:12:43;;;;;;;4.45;3.00;;;20.70;73.20;;;;;;4678372;30;20030;-76
2021/07/02 06:15:10;;;;;;;3.72;2.67;;;20.70;72.80;;;;;;4677269;30;20045;-76
2021/07/02 06:17:36;;;;;;;3.88;2.83;;;20.80;73.10;;;;;;4677255;30;20030;-77
2021/07/02 06:20:02;;;;;;;5.40;3.38;;;20.90;72.50;;;;;;4677087;30;20041;-76
2021/07/02 06:22:28;;;;;;;4.80;2.55;;;21.00;72.00;;;;;;4677454;30;20042;-78
2021/07/02 06:24:54;;;;;;;5.25;2.95;;;21.00;71.50;;;;;;4692562;30;20039;-80
2021/07/02 06:27:19;;;;;;;3.80;2.72;;;21.30;71.40;;;;;;4679197;30;20050;-79
2021/07/02 06:29:45;;;;;;;11.07;5.00;;;21.50;70.50;;;;;;4676001;30;20353;-80
2021/07/02 06:32:11;;;;;;;4.50;2.72;;;21.70;69.90;;;;;;4672822;30;20041;-78
2021/07/02 06:34:37;;;;;;;4.20;2.90;;;21.90;68.70;;;;;;4680518;30;20034;-80
2021/07/02 06:37:03;;;;;;;10.00;3.00;;;22.10;68.10;;;;;;4679048;30;20032;-80
2021/07/02 06:39:29;;;;;;;3.92;2.17;;;21.80;67.40;;;;;;4676876;30;20026;-80
2021/07/02 06:41:54;;;;;;;3.58;2.88;;;21.80;67.70;;;;;;4679164;30;20026;-80
2021/07/02 06:44:20;;;;;;;6.30;2.88;;;21.80;67.00;;;;;;4678585;30;20045;-80
2021/07/02 06:46:47;;;;;;;3.35;2.58;;;21.60;68.00;;;;;;4671153;30;20208;-79
2021/07/02 06:49:13;;;;;;;6.65;3.03;;;21.40;67.60;;;;;;4687644;30;20049;-79
2021/07/02 06:51:39;;;;;;;3.33;2.70;;;21.10;68.40;;;;;;4684560;30;20050;-79
2021/07/02 06:54:05;;;;;;;5.38;3.08;;;21.00;69.00;;;;;;4665878;30;20051;-79
2021/07/02 06:56:31;;;;;;;2.85;2.40;;;21.00;69.10;;;;;;4679597;30;20033;-77
2021/07/02 06:58:58;;;;;;;5.90;2.58;;;20.90;69.50;;;;;;4678261;30;20045;-79
2021/07/02 07:01:24;;;;;;;5.47;2.95;;;21.00;69.90;;;;;;4670347;30;20027;-81
2021/07/02 07:03:50;;;;;;;6.78;3.25;;;21.10;69.20;;;;;;4676106;30;20066;-79
2021/07/02 07:06:17;;;;;;;3.90;2.70;;;21.10;69.20;;;;;;4688286;30;20043;-80
2021/07/02 07:08:43;;;;;;;6.07;2.42;;;21.40;69.00;;;;;;4677742;30;20062;-79
2021/07/02 07:11:09;;;;;;;7.18;2.30;;;21.60;68.60;;;;;;4692388;30;20149;-78
2021/07/02 07:13:36;;;;;;;3.73;2.63;;;21.90;67.30;;;;;;4666076;30;20124;-80
2021/07/02 07:16:02;;;;;;;;;;;21.90;66.70;;;;;;4675919;30;20079;-77
2021/07/02 07:18:28;;;;;;;3.07;2.40;;;21.90;66.20;;;;;;4677228;30;19911;-78
2021/07/02 07:20:54;;;;;;;3.53;2.33;;;21.80;66.70;;;;;;4677461;30;20027;-76
2021/07/02 07:23:20;;;;;;;4.38;2.60;;;21.70;67.00;;;;;;4673536;30;20032;-78
2021/07/02 07:25:46;;;;;;;4.20;2.80;;;21.80;66.50;;;;;;4688281;30;20054;-78
2021/07/02 07:28:11;;;;;;;4.28;2.30;;;21.70;66.80;;;;;;4687825;30;20042;-79
2021/07/02 07:30:37;;;;;;;4.15;2.70;;;21.70;66.40;;;;;;4652998;30;20043;-77
2021/07/02 07:33:03;;;;;;;2.83;2.38;;;21.70;67.30;;;;;;4670179;30;20034;-77
2021/07/02 07:35:37;;;;;;;3.83;2.40;;;21.70;66.80;;;;;;4670065;30;20337;-77
2021/07/02 07:38:03;;;;;;;2.42;2.13;;;21.80;67.20;;;;;;4687777;30;20094;-78
2021/07/02 07:40:31;;;;;;;5.75;2.85;;;21.90;66.40;;;;;;4673759;30;20065;-78
2021/07/02 07:42:57;;;;;;;;;;;21.90;66.50;;;;;;4673852;30;20039;-77
2021/07/02 07:45:24;;;;;;;3.67;2.28;;;22.00;66.10;;;;;;4674483;30;19911;-78
2021/07/02 07:47:50;;;;;;;4.05;2.50;;;22.00;66.00;;;;;;4676460;30;20277;-77
2021/07/02 07:50:28;;;;;;;4.80;2.67;;;22.30;65.90;;;;;;4674179;30;20030;-78
2021/07/02 07:53:00;;;;;;;4.18;2.50;;;22.50;65.20;;;;;;4677198;30;20034;-78
2021/07/02 07:55:30;;;;;;;6.32;2.88;;;22.60;64.60;;;;;;4677713;30;20035;-78
2021/07/02 07:57:56;;;;;;;7.00;2.50;;;22.50;64.10;;;;;;4678144;30;20069;-78
2021/07/02 08:00:23;;;;;;;3.78;2.38;;;22.40;64.60;;;;;;4685675;30;20031;-77
2021/07/02 08:02:50;;;;;;;6.60;2.78;;;22.40;65.30;;;;;;4674044;30;20036;-78
2021/07/02 08:05:16;;;;;;;4.40;2.33;;;22.20;65.10;;;;;;4676351;30;20046;-78
2021/07/02 08:07:44;;;;;;;4.15;2.58;;;22.10;65.90;;;;;;4675847;30;20035;-77
2021/07/02 08:10:12;;;;;;;4.32;2.45;;;22.20;65.50;;;;;;4690499;30;20109;-78
2021/07/02 08:12:39;;;;;;;3.28;2.65;;;22.40;64.90;;;;;;4690950;30;20046;-78
2021/07/02 08:15:07;;;;;;;3.60;2.58;;;22.60;64.50;;;;;;4677117;30;20068;-78
2021/07/02 08:17:37;;;;;;;8.05;2.60;;;22.70;62.40;;;;;;4668459;30;20034;-77
2021/07/02 08:20:07;;;;;;;4.60;2.55;;;22.50;63.20;;;;;;4675951;30;20364;-78
2021/07/02 08:22:34;;;;;;;5.25;2.72;;;22.30;64.10;;;;;;4674417;30;20323;-77
2021/07/02 08:25:00;;;;;;;4.03;2.97;;;22.00;64.40;;;;;;4681970;30;20042;-78
2021/07/02 08:27:26;;;;;;;2.33;2.10;;;21.80;65.10;;;;;;4688807;30;20057;-78
2021/07/02 08:29:52;;;;;;;7.38;2.70;;;21.90;65.10;;;;;;4690862;30;20026;-78
2021/07/02 08:32:18;;;;;;;5.70;3.13;;;22.00;65.60;;;;;;4682513;30;20041;-80
2021/07/02 08:34:44;;;;;;;5.93;2.90;;;22.10;65.10;;;;;;4675873;30;20034;-77
2021/07/02 08:37:10;;;;;;;9.57;3.10;;;22.10;64.10;;;;;;4690048;30;20036;-78
2021/07/02 08:39:36;;;;;;;5.18;2.60;;;21.90;65.10;;;;;;4681834;30;20054;-78
2021/07/02 08:42:05;;;;;;;6.35;2.97;;;22.00;65.30;;;;;;4688734;30;20069;-77
2021/07/02 08:44:34;;;;;;;4.95;3.17;;;22.00;66.00;;;;;;4673337;30;20062;-78
2021/07/02 08:47:01;;;;;;;4.65;3.17;;;22.20;66.00;;;;;;4672039;30;20263;-77
2021/07/02 08:49:33;;;;;;;5.87;2.80;;;22.40;65.00;;;;;;4676313;30;20230;-78
2021/07/02 08:51:59;;;;;;;7.65;3.20;;;22.50;63.70;;;;;;4676958;30;20041;-78
2021/07/02 08:54:25;;;;;;;5.60;2.80;;;22.40;63.70;;;;;;4690046;30;20089;-77
2021/07/02 08:56:58;;;;;;;4.35;2.70;;;22.30;63.70;;;;;;4675313;30;20046;-77
2021/07/02 08:59:25;;;;;;;3.50;3.08;;;22.40;64.40;;;;;;4677091;30;20030;-79
2021/07/02 09:01:51;;;;;;;;;;;22.70;64.20;;;;;;4691018;30;20034;-79
2021/07/02 09:04:18;;;;;;;2.57;2.20;;;22.90;62.90;;;;;;4675838;30;19920;-78
2021/07/02 09:06:44;;;;;;;;;;;22.90;61.40;;;;;;4675394;30;20044;-77
2021/07/02 09:09:10;;;;;;;5.97;3.50;;;22.90;62.70;;;;;;4674444;30;19912;-77
2021/07/02 09:11:36;;;;;;;7.47;3.20;;;22.60;62.90;;;;;;4675720;30;20038;-77
2021/07/02 09:14:04;;;;;;;6.25;3.58;;;22.40;63.90;;;;;;4674982;30;20054;-78
2021/07/02 09:16:38;;;;;;;6.97;3.85;;;22.20;64.50;;;;;;4673063;30;20027;-77
2021/07/02 09:19:28;;;;;;;11.50;3.33;;;21.90;65.70;;;;;;4677436;30;20057;-78
2021/07/02 09:22:18;;;;;;;6.05;3.28;;;21.80;66.40;;;;;;4688395;30;20030;-77
2021/07/02 09:24:48;;;;;;;6.60;3.45;;;21.60;66.90;;;;;;4683402;30;20102;-77
2021/07/02 09:27:26;;;;;;;11.15;4.10;;;21.40;67.20;;;;;;4674023;30;20030;-77
2021/07/02 09:30:07;;;;;;;10.30;4.47;;;21.30;68.20;;;;;;4684025;30;20041;-78
2021/07/02 09:32:37;;;;;;;5.30;3.95;;;21.20;68.20;;;;;;4672387;30;20057;-77
2021/07/02 09:35:03;;;;;;;7.45;3.90;;;21.10;68.90;;;;;;4659526;30;20330;-77
2021/07/02 09:37:36;;;;;;;7.67;4.13;;;21.00;69.50;;;;;;4689408;30;20037;-77
2021/07/02 09:40:14;;;;;;;4.65;3.53;;;20.80;69.50;;;;;;4689321;30;20039;-79
2021/07/02 09:42:41;;;;;;;5.47;4.13;;;20.70;70.80;;;;;;4670417;30;20054;-78
2021/07/02 09:45:18;;;;;;;5.72;4.28;;;20.70;71.00;;;;;;4675619;30;20045;-78
2021/07/02 09:47:46;;;;;;;5.78;4.00;;;20.60;70.80;;;;;;4682095;30;20274;-77
2021/07/02 09:50:26;;;;;;;8.18;4.88;;;20.60;71.20;;;;;;4689260;30;20081;-77
2021/07/02 09:53:00;;;;;;;8.60;4.57;;;20.70;71.50;;;;;;4679336;30;20038;-77
2021/07/02 09:55:31;;;;;;;5.47;3.90;;;20.60;71.50;;;;;;4675226;30;20038;-78
2021/07/02 09:58:07;;;;;;;7.10;4.18;;;20.70;71.40;;;;;;4687209;30;20089;-76
2021/07/02 10:00:39;;;;;;;13.05;4.57;;;21.00;71.20;;;;;;4675308;30;20253;-77
2021/07/02 10:03:06;;;;;;;7.95;4.20;;;21.10;71.20;;;;;;4689777;30;20034;-78
2021/07/02 10:05:43;;;;;;;;;;;21.40;71.10;;;;;;4689105;30;20095;-78
2021/07/02 10:08:08;;;;;;;;;;;21.30;69.30;;;;;;4671000;30;19912;-78
2021/07/02 10:10:34;;;;;;;5.17;3.73;;;21.20;69.40;;;;;;4676581;30;20218;-77
2021/07/02 10:13:00;;;;;;;8.93;4.43;;;21.20;70.20;;;;;;4674853;30;20035;-76
2021/07/02 10:15:27;;;;;;;10.80;3.90;;;21.10;70.20;;;;;;4676104;30;20030;-77
2021/07/02 10:17:59;;;;;;;;;;;21.10;70.40;;;;;;4683369;30;20129;-77
2021/07/02 10:20:27;;;;;;;8.02;4.10;;;20.80;71.00;;;;;;4690579;30;19983;-78
2021/07/02 10:22:57;;;;;;;8.48;4.60;;;20.70;72.00;;;;;;4676979;30;20046;-78
2021/07/02 10:25:25;;;;;;;7.72;4.75;;;20.70;72.00;;;;;;4676901;30;20045;-78
2021/07/02 10:27:52;;;;;;;7.38;4.88;;;20.80;72.20;;;;;;4683344;30;20046;-77
2021/07/02 10:30:18;;;;;;;5.40;4.53;;;21.00;72.50;;;;;;4674638;30;20038;-77
2021/07/02 10:32:46;;;;;;;9.60;4.70;;;21.00;71.50;;;;;;4683934;30;20175;-79
2021/07/02 10:35:15;;;;;;;7.13;4.07;;;21.00;71.90;;;;;;4690819;30;20089;-79
2021/07/02 10:37:48;;;;;;;7.30;4.45;;;20.90;72.10;;;;;;4675903;30;20102;-78
2021/07/02 10:40:43;;;;;;;8.65;4.45;;;20.80;72.50;;;;;;4670689;30;20581;-78
2021/07/02 10:43:09;;;;;;;10.65;5.18;;;20.80;73.50;;;;;;4661491;30;20045;-78
2021/07/02 10:45:37;;;;;;;7.93;4.57;;;20.70;73.40;;;;;;4686864;30;20064;-77
2021/07/02 10:48:03;;;;;;;7.93;4.07;;;20.60;73.90;;;;;;4678088;30;20269;-78
2021/07/02 10:50:41;;;;;;;7.55;4.38;;;20.70;74.00;;;;;;4663235;30;20065;-78
2021/07/02 10:53:27;;;;;;;8.60;4.53;;;20.80;73.60;;;;;;4668390;30;20118;-77
2021/07/02 10:55:52;;;;;;;6.43;4.00;;;20.80;73.80;;;;;;4668142;30;20035;-78
2021/07/02 10:58:20;;;;;;;6.47;4.72;;;21.00;73.80;;;;;;4675900;30;20046;-78
2021/07/02 11:01:06;;;;;;;6.60;4.53;;;21.20;73.50;;;;;;4654278;30;20042;-78
2021/07/02 11:03:32;;;;;;;8.10;5.00;;;21.30;73.60;;;;;;4678651;30;20038;-77
2021/07/02 11:05:58;;;;;;;7.35;4.30;;;21.30;73.80;;;;;;4681279;30;20337;-78
2021/07/02 11:08:59;;;;;;;6.47;4.68;;;21.40;74.00;;;;;;4654325;30;20058;-78
2021/07/02 11:11:25;;;;;;;9.00;4.10;;;21.40;73.50;;;;;;4604029;31;20055;-78
2021/07/02 11:14:09;;;;;;;9.30;4.80;;;21.40;74.20;;;;;;4613541;31;20358;-78
2021/07/02 11:17:13;;;;;;;7.18;4.28;;;21.60;74.50;;;;;;4610034;31;20045;-78
2021/07/02 11:19:39;;;;;;;9.55;4.72;;;21.60;73.60;;;;;;4609778;31;20311;-78
2021/07/02 11:22:32;;;;;;;6.90;3.80;;;21.80;72.90;;;;;;4623711;31;20032;-79
2021/07/02 11:25:21;;;;;;;6.20;3.72;;;22.10;73.00;;;;;;4610363;31;20039;-79
2021/07/02 11:27:57;;;;;;;4.03;2.97;;;22.40;71.70;;;;;;4620452;31;20103;-78
2021/07/02 11:33:01;;;;;;;3.28;2.83;;;22.60;68.80;;;;;;4613207;31;20051;-77
2021/07/02 11:35:28;;;;;;;6.68;3.30;;;22.60;69.20;;;;;;4618916;31;20147;-78
2021/07/02 11:38:00;;;;;;;5.72;3.60;;;22.50;69.60;;;;;;4620148;31;20037;-78
2021/07/02 11:41:00;;;;;;;5.53;3.83;;;22.50;68.30;;;;;;4621539;31;20150;-78
2021/07/02 11:43:35;;;;;;;4.43;3.67;;;22.40;69.60;;;;;;4621469;31;20048;-78
2021/07/02 11:46:05;;;;;;;4.85;3.75;;;22.30;69.50;;;;;;4663122;30;20062;-79
2021/07/02 11:48:42;;;;;;;5.47;4.18;;;22.40;69.80;;;;;;4678249;30;20042;-78
2021/07/02 11:51:13;;;;;;;8.07;4.57;;;22.30;69.90;;;;;;4678204;30;20066;-79
2021/07/02 11:53:45;;;;;;;6.80;4.30;;;22.20;70.60;;;;;;4671196;30;20105;-78
2021/07/02 11:56:12;;;;;;;7.00;4.38;;;22.10;71.10;;;;;;4682681;30;20035;-77
2021/07/02 11:58:43;;;;;;;6.97;3.88;;;21.90;71.50;;;;;;4680918;30;20237;-77
2021/07/02 12:01:15;;;;;;;7.18;4.07;;;21.70;71.70;;;;;;4678440;30;20089;-78
2021/07/02 12:03:53;;;;;;;4.68;3.58;;;21.60;72.90;;;;;;4700119;30;20030;-78
2021/07/02 12:06:28;;;;;;;4.88;3.53;;;21.60;72.80;;;;;;4676107;30;20035;-78
2021/07/02 12:09:04;;;;;;;6.00;3.42;;;21.70;73.10;;;;;;4668791;30;20322;-77
2021/07/02 12:11:41;;;;;;;7.95;4.50;;;21.80;71.50;;;;;;4683376;30;20041;-77
2021/07/02 12:14:12;;;;;;;4.70;3.75;;;21.90;71.10;;;;;;4677365;30;20047;-79
2021/07/02 12:16:41;;;;;;;9.43;5.00;;;22.00;71.80;;;;;;4667734;30;20037;-79
2021/07/02 12:19:15;;;;;;;10.98;5.32;;;22.20;71.50;;;;;;4667887;30;20035;-78
2021/07/02 12:21:50;;;;;;;11.82;5.07;;;22.20;71.20;;;;;;4677200;30;20274;-78
2021/07/02 12:24:20;;;;;;;7.88;4.82;;;22.20;71.90;;;;;;4686541;30;20370;-79
2021/07/02 12:26:53;;;;;;;6.43;4.82;;;22.10;71.90;;;;;;4677038;30;20034;-79
2021/07/02 12:29:20;;;;;;;9.98;5.10;;;22.10;72.10;;;;;;4676589;30;20035;-79
2021/07/02 12:31:47;;;;;;;6.22;4.05;;;22.20;72.10;;;;;;4676503;30;20034;-78
2021/07/02 12:34:16;;;;;;;9.15;4.60;;;22.30;71.80;;;;;;4674937;30;20046;-77
2021/07/02 12:36:56;;;;;;;6.10;3.85;;;22.30;71.40;;;;;;4675669;30;20027;-77
2021/07/02 12:39:41;;;;;;;4.80;3.33;;;22.40;71.30;;;;;;4682977;30;20065;-79
2021/07/02 12:42:15;;;;;;;4.30;3.45;;;22.40;71.20;;;;;;4678726;30;20026;-78
2021/07/02 12:44:51;;;;;;;3.72;3.10;;;22.40;71.60;;;;;;4678331;30;20034;-79
2021/07/02 12:47:18;;;;;;;5.80;3.22;;;22.50;70.60;;;;;;4668106;30;20208;-77
2021/07/02 12:49:45;;;;;;;4.93;3.00;;;22.50;70.80;;;;;;4675901;30;20097;-77
2021/07/02 12:54:53;;;;;;;6.05;3.88;;;22.10;71.10;;;;;;4677100;30;20042;-78
2021/07/02 12:57:35;;;;;;;5.20;3.78;;;22.00;71.90;;;;;;4686464;30;20049;-79
2021/07/02 13:00:10;;;;;;;7.80;4.00;;;21.90;72.40;;;;;;4676109;30;20041;-78
2021/07/02 13:02:50;;;;;;;6.32;4.13;;;21.90;72.80;;;;;;4678337;30;20034;-78
2021/07/02 13:05:19;;;;;;;5.47;3.85;;;21.70;71.90;;;;;;4677841;30;20107;-79
2021/07/02 13:07:56;;;;;;;7.20;4.72;;;21.40;73.30;;;;;;4676246;30;20053;-79
2021/07/02 13:10:30;;;;;;;;;;;21.30;74.20;;;;;;4677534;30;20034;-79
2021/07/02 13:13:09;;;;;;;7.03;4.13;;;21.30;74.90;;;;;;4662773;30;19918;-79
2021/07/02 13:15:56;;;;;;;4.97;3.47;;;21.30;75.10;;;;;;4691118;30;20038;-78
2021/07/02 13:18:25;;;;;;;9.25;4.18;;;21.20;74.50;;;;;;4669387;30;20043;-78
2021/07/02 13:20:55;;;;;;;7.63;3.95;;;21.10;74.20;;;;;;4676358;30;20041;-77
2021/07/02 13:23:23;;;;;;;8.40;4.35;;;21.10;74.30;;;;;;4678131;30;20041;-79
2021/07/02 13:26:12;;;;;;;11.57;4.10;;;21.10;74.20;;;;;;4679257;30;20034;-79
2021/07/02 13:28:44;;;;;;;7.57;4.40;;;21.00;74.00;;;;;;4673405;30;20050;-79
2021/07/02 13:31:31;;;;;;;6.38;4.20;;;20.90;74.50;;;;;;4675967;30;20317;-79
2021/07/02 13:34:04;;;;;;;5.72;4.78;;;20.90;74.50;;;;;;4675812;30;20062;-78
2021/07/02 13:36:32;;;;;;;9.73;4.60;;;20.90;75.20;;;;;;4690349;30;20337;-78
2021/07/02 13:39:00;;;;;;;10.75;4.95;;;20.80;75.30;;;;;;4692429;30;20057;-78
2021/07/02 13:41:26;;;;;;;6.75;4.55;;;20.90;75.20;;;;;;4678219;30;20065;-78
2021/07/02 13:43:59;;;;;;;6.43;4.78;;;21.00;75.20;;;;;;4674973;30;20244;-78
2021/07/02 13:46:30;;;;;;;6.25;4.93;;;21.00;75.00;;;;;;4675450;30;20125;-78
2021/07/02 13:48:56;;;;;;;7.03;4.93;;;21.00;75.00;;;;;;4673625;30;20038;-77
2021/07/02 13:51:22;;;;;;;6.68;4.72;;;21.00;74.60;;;;;;4689759;30;20114;-79
2021/07/02 13:53:48;;;;;;;10.83;5.00;;;20.90;75.10;;;;;;4675987;30;20065;-79
2021/07/02 13:56:14;;;;;;;6.47;5.10;;;21.00;75.40;;;;;;4676485;30;20033;-78
2021/07/02 13:58:40;;;;;;;8.75;4.82;;;21.00;74.70;;;;;;4683379;30;20042;-79
2021/07/02 14:01:05;;;;;;;11.60;4.28;;;21.10;74.60;;;;;;4676931;30;20098;-79
2021/07/02 14:03:31;;;;;;;6.07;4.40;;;21.20;74.10;;;;;;4678080;30;20124;-79
2021/07/02 14:05:57;;;;;;;8.40;5.63;;;21.30;74.10;;;;;;4663384;30;20229;-79
2021/07/02 14:08:23;;;;;;;7.53;4.35;;;21.10;73.50;;;;;;4691665;30;20049;-77
2021/07/02 14:10:48;;;;;;;9.52;5.03;;;20.90;74.50;;;;;;4680720;30;20035;-78
2021/07/02 14:13:14;;;;;;;6.75;5.13;;;20.80;75.00;;;;;;4674761;30;20070;-79
2021/07/02 14:15:40;;;;;;;7.35;5.00;;;20.70;75.30;;;;;;4684265;30;20264;-78
2021/07/02 14:18:08;;;;;;;11.52;5.05;;;20.60;75.70;;;;;;4683427;30;20029;-77
2021/07/02 14:20:35;;;;;;;6.55;4.80;;;20.60;76.30;;;;;;4687529;30;20109;-79
2021/07/02 14:23:01;;;;;;;;;;;20.60;76.40;;;;;;4680416;30;20153;-78
2021/07/02 14:25:27;;;;;;;7.00;4.93;;;20.80;75.70;;;;;;4679553;30;19920;-78
2021/07/02 14:27:54;;;;;;;10.30;4.97;;;20.80;75.70;;;;;;4678672;30;20050;-78
2021/07/02 14:30:21;;;;;;;8.52;4.85;;;20.90;75.10;;;;;;4681862;30;20039;-78
2021/07/02 14:32:47;;;;;;;6.43;4.22;;;20.90;75.00;;;;;;4678405;30;20326;-79
2021/07/02 14:35:16;;;;;;;6.88;4.75;;;20.90;75.00;;;;;;4678743;30;20030;-79
2021/07/02 14:37:45;;;;;;;5.72;4.72;;;21.00;75.20;;;;;;4680449;30;20211;-78
2021/07/02 14:40:13;;;;;;;35.65;22.30;;;20.90;74.60;;;;;;4678960;30;20035;-78
2021/07/02 14:42:40;;;;;;;13.63;7.53;;;20.70;74.60;;;;;;4678971;30;20031;-77
2021/07/02 14:45:06;;;;;;;;;;;20.80;74.60;;;;;;4689994;30;20106;-79
2021/07/02 14:47:32;;;;;;;5.43;4.38;;;20.70;75.10;;;;;;4679773;30;19975;-79
2021/07/02 14:49:58;;;;;;;7.25;4.93;;;20.60;74.90;;;;;;4680131;30;20046;-78
2021/07/02 14:52:24;;;;;;;6.93;4.68;;;20.60;74.80;;;;;;4678621;30;20234;-79
2021/07/02 14:54:50;;;;;;;8.48;5.38;;;20.70;74.80;;;;;;4683996;30;20026;-79
2021/07/02 14:57:16;;;;;;;7.80;4.82;;;20.60;74.30;;;;;;4678262;30;20062;-79
2021/07/02 14:59:41;;;;;;;9.13;4.40;;;20.60;74.80;;;;;;4679433;30;20089;-79
2021/07/02 15:02:07;;;;;;;7.63;4.72;;;20.60;74.60;;;;;;4678589;30;20054;-80
2021/07/02 15:04:33;;;;;;;8.35;4.85;;;20.70;74.40;;;;;;4679906;30;20330;-79
2021/07/02 15:06:59;;;;;;;7.63;5.38;;;20.80;74.20;;;;;;4683001;30;20281;-78
2021/07/02 15:09:24;;;;;;;8.50;5.32;;;20.80;74.20;;;;;;4679358;30;20041;-76
2021/07/02 15:11:50;;;;;;;7.68;5.43;;;20.90;73.90;;;;;;4676542;30;20034;-78
2021/07/02 15:14:16;;;;;;;9.05;4.90;;;20.80;74.00;;;;;;4676636;30;20046;-78
2021/07/02 15:16:42;;;;;;;10.07;4.85;;;20.60;74.50;;;;;;4679429;30;20053;-78
2021/07/02 15:19:08;;;;;;;7.25;5.55;;;20.60;75.10;;;;;;4673662;30;20227;-77
2021/07/02 15:21:33;;;;;;;7.30;5.22;;;20.50;75.40;;;;;;4672182;30;20042;-78
2021/07/02 15:23:59;;;;;;;8.23;5.28;;;20.40;76.10;;;;;;4676620;30;20093;-78
2021/07/02 15:26:25;;;;;;;7.43;4.85;;;20.30;76.50;;;;;;4681336;30;20038;-78
2021/07/02 15:28:51;;;;;;;11.25;6.03;;;20.30;76.80;;;;;;4687341;30;20242;-78
2021/07/02 15:31:54;;;;;;;7.72;5.80;;;20.20;77.10;;;;;;4685058;30;20037;-77
2021/07/02 15:34:20;;;;;;;11.23;6.15;;;20.30;77.50;;;;;;4659343;30;20039;-77
2021/07/02 15:36:46;;;;;;;10.77;6.85;;;20.10;77.90;;;;;;4666162;30;20062;-77
2021/07/02 15:39:12;;;;;;;9.88;6.00;;;20.10;78.20;;;;;;4676405;30;20053;-77
2021/07/02 15:41:38;;;;;;;8.45;5.88;;;20.00;78.10;;;;;;4675985;30;20330;-78
2021/07/02 15:44:04;;;;;;;8.98;5.25;;;19.90;79.00;;;;;;4677808;30;20038;-77
2021/07/02 15:46:29;;;;;;;11.23;5.63;;;19.90;79.10;;;;;;4676081;30;20050;-77
2021/07/02 15:48:55;;;;;;;11.70;6.88;;;19.80;79.60;;;;;;4676278;30;20368;-77